createdAt,value
2019-01-12T00:03:21.449Z,14.80
2019-01-12T00:08:25.518Z,14.13
2019-01-12T00:13:30.125Z,15.47
2019-01-12T00:18:34.519Z,15.90
2019-01-12T00:23:38.909Z,15.23
2019-01-12T00:28:43.295Z,13.63
2019-01-12T00:33:47.686Z,12.37
2019-01-12T00:38:52.048Z,13.33
2019-01-12T00:43:56.444Z,13.40
2019-01-12T00:49:00.842Z,12.97
2019-01-12T00:54:05.308Z,13.23
2019-01-12T00:59:09.699Z,12.73
2019-01-12T01:04:13.849Z,12.37
2019-01-12T01:09:18.611Z,12.40
2019-01-12T01:14:23.007Z,12.53
2019-01-12T01:19:27.117Z,12.27
2019-01-12T01:24:31.265Z,13.70
2019-01-12T01:29:35.620Z,12.53
2019-01-12T01:34:40.760Z,12.47
2019-01-12T01:39:45.134Z,12.73
2019-01-12T01:44:49.306Z,11.77
2019-01-12T01:49:53.658Z,11.80
2019-01-12T01:54:58.374Z,11.73
2019-01-12T02:00:02.743Z,11.53
2019-01-12T02:05:06.885Z,11.63
2019-01-12T02:10:14.277Z,12.17
2019-01-12T02:15:19.083Z,13.00
2019-01-12T02:20:23.418Z,14.63
2019-01-12T02:25:27.786Z,13.97
2019-01-12T02:30:32.235Z,12.60
2019-01-12T02:35:36.937Z,13.03
2019-01-12T02:40:41.371Z,13.87
2019-01-12T02:45:45.474Z,14.40
2019-01-12T02:50:50.138Z,13.97
2019-01-12T02:55:54.541Z,13.68
2019-01-12T03:00:58.961Z,12.50
2019-01-12T03:06:03.063Z,13.70
2019-01-12T03:11:07.430Z,13.77
2019-01-12T03:16:11.517Z,14.63
2019-01-12T03:21:15.906Z,14.80
2019-01-12T03:26:19.967Z,16.63
2019-01-12T03:31:24.314Z,15.57
2019-01-12T03:36:28.720Z,16.97
2019-01-12T03:41:33.408Z,17.60
2019-01-12T03:46:37.873Z,16.93
2019-01-12T03:51:42.260Z,17.50
2019-01-12T03:56:46.666Z,16.97
2019-01-12T04:01:50.757Z,16.93
2019-01-12T04:06:55.131Z,16.57
2019-01-12T04:11:59.528Z,16.50
2019-01-12T04:17:03.915Z,15.00
2019-01-12T04:22:08.276Z,15.23
2019-01-12T04:27:12.393Z,15.20
2019-01-12T04:32:16.748Z,15.63
2019-01-12T04:37:21.429Z,16.17
2019-01-12T04:42:25.767Z,16.30
2019-01-12T04:47:29.824Z,16.20
2019-01-12T04:52:34.400Z,16.30
2019-01-12T04:57:38.780Z,16.23
2019-01-12T05:02:43.253Z,15.97
2019-01-12T05:07:47.587Z,15.97
2019-01-12T05:12:51.976Z,16.83
2019-01-12T05:17:56.136Z,15.43
2019-01-12T05:23:00.701Z,16.43
2019-01-12T05:28:05.140Z,14.90
2019-01-12T05:33:09.197Z,14.90
2019-01-12T05:38:13.537Z,15.10
2019-01-12T05:43:17.911Z,14.65
2019-01-12T05:48:22.638Z,13.47
2019-01-12T05:53:26.738Z,13.37
2019-01-12T05:58:31.054Z,13.33
2019-01-12T06:03:35.101Z,12.27
2019-01-12T06:08:39.433Z,12.73
2019-01-12T06:13:43.533Z,13.40
2019-01-12T06:18:47.871Z,12.27
2019-01-12T06:23:52.258Z,13.00
2019-01-12T06:28:56.349Z,12.90
2019-01-12T06:34:00.688Z,13.10
2019-01-12T06:39:08.963Z,12.40
2019-01-12T06:44:13.354Z,12.13
2019-01-12T06:49:17.800Z,12.20
2019-01-12T06:54:22.498Z,12.33
2019-01-12T06:59:26.927Z,13.57
2019-01-12T07:04:31.017Z,11.93
2019-01-12T07:09:35.347Z,11.23
2019-01-12T07:14:39.686Z,10.95
2019-01-12T07:19:44.083Z,10.17
2019-01-12T07:24:48.406Z,10.17
2019-01-12T07:29:53.056Z,9.27
2019-01-12T07:34:57.430Z,8.80
2019-01-12T07:40:01.806Z,8.13
2019-01-12T07:45:09.189Z,8.50
2019-01-12T07:50:14.954Z,8.60
2019-01-12T07:55:18.993Z,8.87
2019-01-12T08:00:23.789Z,8.60
2019-01-12T08:05:28.166Z,9.90
2019-01-12T08:10:32.457Z,11.47
2019-01-12T08:15:36.497Z,10.97
2019-01-12T08:20:40.544Z,12.50
2019-01-12T08:25:44.877Z,12.60
2019-01-12T08:30:48.960Z,13.43
2019-01-12T08:35:53.309Z,14.00
2019-01-12T08:40:57.397Z,16.07
2019-01-12T08:46:02.091Z,16.50
2019-01-12T08:51:06.178Z,16.10
2019-01-12T08:56:10.222Z,17.57
2019-01-12T09:01:14.529Z,18.10
2019-01-12T09:06:18.605Z,16.10
2019-01-12T09:11:22.645Z,15.32
2019-01-12T09:16:26.700Z,14.18
2019-01-12T09:21:31.322Z,12.50
2019-01-12T09:26:35.416Z,11.70
2019-01-12T09:31:39.512Z,13.57
2019-01-12T09:36:43.553Z,13.27
2019-01-12T09:41:47.621Z,13.70
2019-01-12T09:46:52.210Z,14.37
2019-01-12T09:51:56.304Z,13.90
2019-01-12T09:57:00.347Z,13.33
2019-01-12T10:02:04.461Z,12.30
2019-01-12T10:07:08.852Z,11.23
2019-01-12T10:12:12.933Z,11.97
2019-01-12T10:17:17.271Z,10.93
2019-01-12T10:22:28.407Z,11.10
2019-01-12T10:27:27.746Z,10.93
2019-01-12T10:32:31.856Z,9.73
2019-01-12T10:37:35.956Z,9.40
2019-01-12T10:42:40.296Z,9.40
2019-01-12T10:47:45.370Z,9.90
2019-01-12T10:52:49.441Z,9.87
2019-01-12T10:57:54.194Z,9.10
2019-01-12T11:02:58.426Z,9.17
2019-01-12T11:08:02.750Z,10.10
2019-01-12T11:13:07.442Z,9.53
2019-01-12T11:18:11.549Z,9.23
2019-01-12T11:23:15.892Z,9.43
2019-01-12T11:28:20.288Z,9.40
2019-01-12T11:33:24.409Z,9.23
2019-01-12T11:38:28.510Z,9.57
2019-01-12T11:43:32.918Z,9.10
2019-01-12T11:48:37.346Z,9.47
2019-01-12T11:53:41.772Z,9.27
2019-01-12T11:58:45.828Z,9.10
2019-01-12T12:03:51.380Z,9.80
2019-01-12T12:08:55.974Z,9.47
2019-01-12T12:14:00.081Z,9.27
2019-01-12T12:19:04.305Z,9.67
2019-01-12T12:24:08.377Z,8.67
2019-01-12T12:29:12.747Z,8.33
2019-01-12T12:34:17.093Z,8.30
2019-01-12T12:39:21.484Z,7.90
2019-01-12T12:44:26.031Z,7.80
2019-01-12T12:49:31.309Z,7.67
2019-01-12T12:54:35.374Z,7.60
2019-01-12T12:59:39.733Z,7.80
2019-01-12T13:04:44.104Z,7.43
2019-01-12T13:09:48.404Z,6.90
2019-01-12T13:14:52.477Z,7.37
2019-01-12T13:19:56.827Z,6.90
2019-01-12T13:25:00.891Z,6.33
2019-01-12T13:30:13.980Z,6.00
2019-01-12T13:35:18.413Z,6.00
2019-01-12T13:40:26.095Z,6.77
2019-01-12T13:45:30.454Z,5.80
2019-01-12T13:50:34.847Z,5.83
2019-01-12T13:55:38.954Z,5.17
2019-01-12T14:00:43.021Z,6.80
2019-01-12T14:05:47.088Z,4.77
2019-01-12T14:10:51.154Z,5.90
2019-01-12T14:15:55.483Z,4.43
2019-01-12T14:20:59.591Z,3.70
2019-01-12T14:26:03.661Z,4.10
2019-01-12T14:31:07.738Z,3.80
2019-01-12T14:36:12.371Z,3.63
2019-01-12T14:41:16.470Z,3.50
2019-01-12T14:46:20.881Z,3.37
2019-01-12T14:51:24.948Z,3.50
2019-01-12T14:56:29.300Z,3.80
2019-01-12T15:01:33.413Z,4.33
2019-01-12T15:06:37.485Z,3.33
2019-01-12T15:11:41.541Z,3.63
2019-01-12T15:16:45.897Z,5.17
2019-01-12T15:21:50.382Z,3.60
2019-01-12T15:26:54.485Z,3.00
2019-01-12T15:31:58.554Z,3.57
2019-01-12T15:37:02.905Z,3.77
2019-01-12T15:42:07.015Z,3.40
2019-01-12T15:47:11.389Z,4.10
2019-01-12T15:52:15.794Z,3.43
2019-01-12T15:57:20.197Z,3.37
2019-01-12T16:02:24.856Z,3.30
2019-01-12T16:07:29.260Z,3.00
2019-01-12T16:12:33.378Z,3.03
2019-01-12T16:17:38.067Z,3.20
2019-01-12T16:22:42.488Z,3.50
2019-01-12T16:27:46.598Z,3.90
2019-01-12T16:32:51.232Z,4.37
2019-01-12T16:37:55.689Z,4.67
2019-01-12T16:43:00.088Z,5.07
2019-01-12T16:48:04.756Z,6.87
2019-01-12T16:53:09.223Z,10.23
2019-01-12T16:58:14.145Z,8.57
2019-01-12T17:03:18.833Z,8.00
2019-01-12T17:08:23.329Z,8.60
2019-01-12T17:13:27.685Z,7.53
2019-01-12T17:18:31.803Z,8.90
2019-01-12T17:23:36.177Z,10.10
2019-01-12T17:28:40.629Z,7.87
2019-01-12T17:33:44.741Z,6.03
2019-01-12T17:38:49.100Z,6.45
2019-01-12T17:43:53.495Z,9.20
2019-01-12T17:48:57.921Z,8.97
2019-01-12T17:54:02.270Z,6.93
2019-01-12T17:59:06.387Z,11.47
2019-01-12T18:04:10.462Z,7.20
2019-01-12T18:09:14.898Z,7.40
2019-01-12T18:14:19.306Z,6.95
2019-01-12T18:19:23.407Z,6.53
2019-01-12T18:24:27.757Z,7.77
2019-01-12T18:29:32.457Z,7.53
2019-01-12T18:34:36.564Z,8.13
2019-01-12T18:39:40.706Z,7.90
2019-01-12T18:44:45.109Z,7.70
2019-01-12T18:49:49.475Z,7.73
2019-01-12T18:54:53.581Z,7.33
2019-01-12T18:59:57.946Z,7.00
2019-01-12T19:05:02.058Z,5.50
2019-01-12T19:10:09.557Z,5.60
2019-01-12T19:15:22.832Z,5.97
2019-01-12T19:20:27.365Z,6.67
2019-01-12T19:25:31.786Z,7.60
2019-01-12T19:30:36.143Z,10.23
2019-01-12T19:35:40.805Z,11.50
2019-01-12T19:40:45.168Z,11.60
2019-01-12T19:45:49.595Z,11.87
2019-01-12T19:50:55.210Z,11.53
2019-01-12T19:55:59.352Z,12.97
2019-01-12T20:01:04.035Z,14.83
2019-01-12T20:06:08.445Z,15.53
2019-01-12T20:11:13.161Z,14.97
2019-01-12T20:16:17.566Z,14.03
2019-01-12T20:21:22.328Z,13.93
2019-01-12T20:26:26.941Z,16.23
2019-01-12T20:31:50.337Z,20.87
2019-01-12T20:37:20.471Z,15.23
2019-01-12T20:42:53.432Z,11.77
2019-01-12T20:48:19.133Z,5.83
2019-01-12T20:53:32.170Z,4.30
2019-01-12T20:58:41.147Z,4.03
2019-01-12T21:03:51.330Z,4.72
2019-01-12T21:09:24.299Z,5.83
2019-01-12T21:14:37.258Z,5.87
2019-01-12T21:19:47.720Z,8.80
2019-01-12T21:24:47.406Z,15.15
2019-01-12T21:29:51.823Z,15.30
2019-01-12T21:34:56.576Z,15.13
2019-01-12T21:40:00.924Z,13.97
2019-01-12T21:45:10.188Z,12.73
2019-01-12T21:50:16.253Z,12.43
2019-01-12T21:55:21.974Z,10.50
2019-01-12T22:00:26.081Z,8.90
2019-01-12T22:05:30.158Z,10.23
2019-01-12T22:10:34.470Z,11.68
2019-01-12T22:15:38.538Z,13.27
2019-01-12T22:20:42.589Z,13.50
2019-01-12T22:25:46.933Z,12.50
2019-01-12T22:30:51.042Z,12.23
2019-01-12T22:35:55.129Z,12.93
2019-01-12T22:40:59.169Z,13.37
2019-01-12T22:46:03.524Z,14.20
2019-01-12T22:51:07.882Z,14.40
2019-01-12T22:56:11.962Z,14.70
2019-01-12T23:01:19.179Z,14.30
2019-01-12T23:06:23.990Z,14.85
2019-01-12T23:11:28.405Z,16.70
2019-01-12T23:16:32.792Z,15.90
2019-01-12T23:21:37.164Z,18.47
2019-01-12T23:26:41.258Z,20.50
2019-01-12T23:31:45.302Z,19.65
2019-01-12T23:36:49.703Z,21.00
2019-01-12T23:41:53.792Z,20.10
2019-01-12T23:46:58.129Z,20.27
2019-01-12T23:52:02.507Z,19.70
2019-01-12T23:57:06.899Z,20.65
